Time;durP1;ratioP1;P1;durP2;ratioP2;P2;SDS_P1;SDS_P2;PMS_P1;PMS_P2;Temp;Humidity;BMP_temperature;BMP_pressure;BME280_temperature;BME280_humidity;BME280_pressure;Samples;Min_cycle;Max_cycle;Signal;HPM_P1;HPM_P2
2022/09/20 00:00:29;;;;;;;;;;;;;;;25.69;nan;100965.06;5053800;28;1193;-42
2022/09/20 00:02:56;;;;;;;;;;;;;;;25.68;nan;100961.56;5054089;28;1218;-40
2022/09/20 00:05:22;;;;;;;;;;;;;;;25.68;nan;100963.38;5054449;28;1193;-43
2022/09/20 00:07:49;;;;;;;;;;;;;;;25.67;nan;100969.69;5054851;28;1906;-41
2022/09/20 00:10:16;;;;;;;;;;;;;;;25.65;nan;100963.63;5054617;28;1262;-40
2022/09/20 00:12:43;;;;;;;;;;;;;;;25.65;nan;100958.28;5054712;28;1035;-41
2022/09/20 00:15:09;;;;;;;;;;;;;;;25.66;nan;100967.97;5054442;28;1205;-42
2022/09/20 00:17:36;;;;;;;;;;;;;;;25.65;nan;100966.28;5054844;28;1077;-43
2022/09/20 00:20:03;;;;;;;;;;;;;;;25.63;nan;100965.56;5054704;28;1290;-39
2022/09/20 00:22:30;;;;;;;;;;;;;;;25.65;nan;100966.28;5054717;28;1154;-43
2022/09/20 00:24:56;;;;;;;;;;;;;;;25.65;nan;100968.97;5054476;28;1339;-41
2022/09/20 00:27:23;;;;;;;;;;;;;;;25.65;nan;100968.97;5086440;28;1137;-40
2022/09/20 00:29:50;;;;;;;;;;;;;;;25.64;nan;100969.94;5053940;28;2028;-42
2022/09/20 00:32:16;;;;;;;;;;;;;;;25.63;nan;100966.41;5054464;28;967;-42
2022/09/20 00:37:28;;;;;;;;;;;;;;;25.61;nan;100960.38;5054356;28;1103;-43
2022/09/20 00:39:55;;;;;;;;;;;;;;;25.62;nan;100971.88;5054169;28;1205;-41
2022/09/20 00:42:25;;;;;;;;;;;;;;;25.61;nan;100968.38;5054114;28;1031;-43
2022/09/20 00:44:52;;;;;;;;;;;;;;;25.61;nan;100972.84;5054152;28;1256;-38
2022/09/20 00:47:39;;;;;;;;;;;;;;;25.61;nan;100970.19;5052617;28;953;-41
2022/09/20 00:50:12;;;;;;;;;;;;;;;25.61;nan;100968.38;5053626;28;1581;-41
2022/09/20 00:52:42;;;;;;;;;;;;;;;25.61;nan;100971.03;5053961;28;1093;-39
2022/09/20 00:55:10;;;;;;;;;;;;;;;25.60;nan;100969.34;5053899;28;1347;-42
2022/09/20 00:57:37;;;;;;;;;;;;;;;25.59;nan;100966.81;5053973;28;1137;-39
2022/09/20 01:00:06;;;;;;;;;;;;;;;25.59;nan;100962.31;5053373;28;1221;-42
2022/09/20 01:02:34;;;;;;;;;;;;;;;25.58;nan;100960.63;5053097;28;1103;-39
2022/09/20 01:05:01;;;;;;;;;;;;;;;25.59;nan;100958.81;5053567;28;1264;-42
2022/09/20 01:07:28;;;;;;;;;;;;;;;25.59;nan;100961.47;5053424;28;1116;-36
2022/09/20 01:09:56;;;;;;;;;;;;;;;25.58;nan;100965.94;5053159;28;1969;-42
2022/09/20 01:12:25;;;;;;;;;;;;;;;25.57;nan;100969.59;5052584;28;1111;-40
2022/09/20 01:14:53;;;;;;;;;;;;;;;25.57;nan;100963.41;5053113;28;1315;-39
2022/09/20 01:17:22;;;;;;;;;;;;;;;25.56;nan;100967.06;5053419;28;1044;-41
2022/09/20 01:20:07;;;;;;;;;;;;;;;25.56;nan;100967.06;5053277;28;1147;-38
2022/09/20 01:22:36;;;;;;;;;;;;;;;25.57;nan;100963.41;5053382;28;1022;-39
2022/09/20 01:25:13;;;;;;;;;;;;;;;25.54;nan;100965.34;5053175;28;1189;-36
2022/09/20 01:27:41;;;;;;;;;;;;;;;25.55;nan;100963.53;5053289;28;1003;-38
2022/09/20 01:30:11;;;;;;;;;;;;;;;25.53;nan;100952.97;5052883;28;1910;-40
2022/09/20 01:32:50;;;;;;;;;;;;;;;25.52;nan;100959.31;5051833;28;1039;-42
2022/09/20 01:35:18;;;;;;;;;;;;;;;25.53;nan;100963.66;5065188;28;1330;-42
2022/09/20 01:37:55;;;;;;;;;;;;;;;25.52;nan;100951.31;5033337;28;1118;-40
2022/09/20 01:40:41;;;;;;;;;;;;;;;25.52;nan;100953.13;5064641;28;1350;-39
2022/09/20 01:43:31;;;;;;;;;;;;;;;25.52;nan;100956.63;5033270;28;1042;-42
2022/09/20 01:46:01;;;;;;;;;;;;;;;25.51;nan;100946.09;5034997;28;1289;-40
2022/09/20 01:48:28;;;;;;;;;;;;;;;25.52;nan;100955.78;5033234;28;1906;-43
2022/09/20 01:51:13;;;;;;;;;;;;;;;25.51;nan;100959.41;5032711;28;1328;-40
2022/09/20 01:54:00;;;;;;;;;;;;;;;25.51;nan;100954.09;5032868;28;988;-40
2022/09/20 01:56:36;;;;;;;;;;;;;;;25.49;nan;100956.91;5040947;28;1591;-43
2022/09/20 01:59:05;;;;;;;;;;;;;;;25.48;nan;100960.53;5032728;28;860;-42
2022/09/20 02:02:01;;;;;;;;;;;;;;;25.48;nan;100960.53;5032834;28;1383;-42
2022/09/20 02:04:46;;;;;;;;;;;;;;;25.49;nan;100956.91;5032761;28;1201;-42
2022/09/20 02:07:30;;;;;;;;;;;;;;;25.46;nan;100957.09;5032821;28;1037;-41
2022/09/20 02:10:08;;;;;;;;;;;;;;;25.46;nan;100951.78;5064513;28;1917;-40
2022/09/20 02:12:37;;;;;;;;;;;;;;;25.45;nan;100959.88;5032841;28;1104;-41
2022/09/20 02:15:16;;;;;;;;;;;;;;;25.44;nan;100963.56;5032717;28;1189;-40
2022/09/20 02:18:02;;;;;;;;;;;;;;;25.44;nan;100967.03;5032893;28;1021;-42
2022/09/20 02:20:31;;;;;;;;;;;;;;;25.44;nan;100953.69;5032426;28;1197;-38
2022/09/20 02:22:58;;;;;;;;;;;;;;;25.44;nan;100964.38;5032697;28;935;-40
2022/09/20 02:25:45;;;;;;;;;;;;;;;25.43;nan;100968.03;5036000;28;1193;-38
2022/09/20 02:28:19;;;;;;;;;;;;;;;25.42;nan;100969.00;5036690;28;2339;-41
2022/09/20 02:30:49;;;;;;;;;;;;;;;25.43;nan;100965.38;5036331;28;1316;-43
2022/09/20 02:33:22;;;;;;;;;;;;;;;25.43;nan;100968.03;5036462;28;1208;-38
2022/09/20 02:36:07;;;;;;;;;;;;;;;25.43;nan;100973.38;5036475;28;1257;-42
2022/09/20 02:38:43;;;;;;;;;;;;;;;25.41;nan;100975.28;5036677;28;1268;-41
2022/09/20 02:41:16;;;;;;;;;;;;;;;25.41;nan;100980.63;5036152;28;1292;-42
2022/09/20 02:44:01;;;;;;;;;;;;;;;25.42;nan;100981.47;5036586;28;1027;-39
2022/09/20 02:46:28;;;;;;;;;;;;;;;25.42;nan;100981.47;5067801;28;1193;-41
2022/09/20 02:49:01;;;;;;;;;;;;;;;25.41;nan;100977.13;5035873;28;1914;-39
2022/09/20 02:51:46;;;;;;;;;;;;;;;25.40;nan;100984.28;5036081;28;1347;-40
2022/09/20 02:54:19;;;;;;;;;;;;;;;25.40;nan;100986.94;5035819;28;1233;-39
2022/09/20 02:56:46;;;;;;;;;;;;;;;25.38;nan;100980.88;5036228;28;1292;-39
2022/09/20 02:59:22;;;;;;;;;;;;;;;25.39;nan;100979.91;5036104;28;1601;-42
2022/09/20 03:01:59;;;;;;;;;;;;;;;25.38;nan;100974.72;5034967;28;1387;-40
2022/09/20 03:04:37;;;;;;;;;;;;;;;25.40;nan;100978.94;5035747;28;711;-39
2022/09/20 03:07:11;;;;;;;;;;;;;;;25.39;nan;100977.25;5035797;28;1105;-36
2022/09/20 03:09:41;;;;;;;;;;;;;;;25.38;nan;100980.03;5035590;28;1965;-39
2022/09/20 03:12:11;;;;;;;;;;;;;;;25.37;nan;100984.53;5035708;28;1487;-39
2022/09/20 03:15:00;;;;;;;;;;;;;;;25.37;nan;100973.88;5035938;28;1536;-39
2022/09/20 03:17:30;;;;;;;;;;;;;;;25.38;nan;100975.53;5042362;28;1605;-42
2022/09/20 03:20:07;;;;;;;;;;;;;;;25.38;nan;100982.72;5050398;28;1727;-42
2022/09/20 03:22:37;;;;;;;;;;;;;;;25.37;nan;100979.19;5053085;28;1784;-41
2022/09/20 03:25:22;;;;;;;;;;;;;;;25.35;nan;100975.78;5051569;28;1665;-33
2022/09/20 03:27:58;;;;;;;;;;;;;;;25.37;nan;100973.00;5050154;28;1709;-39
2022/09/20 03:30:30;;;;;;;;;;;;;;;25.37;nan;100978.34;5051766;28;1975;-40
2022/09/20 03:33:03;;;;;;;;;;;;;;;25.35;nan;100973.13;5083213;28;1732;-38
2022/09/20 03:36:02;;;;;;;;;;;;;;;25.36;nan;100972.16;5049963;28;1731;-42
2022/09/20 03:38:29;;;;;;;;;;;;;;;25.37;nan;100967.69;5050052;28;1756;-39
2022/09/20 03:41:19;;;;;;;;;;;;;;;25.36;nan;100977.50;5054234;28;1752;-41
2022/09/20 03:43:55;;;;;;;;;;;;;;;25.35;nan;100981.13;5055177;28;988;-42
2022/09/20 03:46:25;;;;;;;;;;;;;;;25.36;nan;100979.31;5053726;28;1193;-43
2022/09/20 03:49:04;;;;;;;;;;;;;;;25.36;nan;100977.50;5053478;28;1914;-42
2022/09/20 03:52:04;;;;;;;;;;;;;;;25.36;nan;100982.81;5053675;28;1173;-43
2022/09/20 03:54:31;;;;;;;;;;;;;;;25.35;nan;100991.78;5053305;28;1290;-39
2022/09/20 03:57:16;;;;;;;;;;;;;;;25.34;nan;100984.78;5054898;28;1027;-42
2022/09/20 03:59:49;;;;;;;;;;;;;;;25.35;nan;100981.13;5054542;28;1142;-40
2022/09/20 04:02:18;;;;;;;;;;;;;;;25.35;nan;100989.13;5054078;28;943;-39
2022/09/20 04:04:51;;;;;;;;;;;;;;;25.34;nan;100979.44;5054951;28;1276;-39
2022/09/20 04:07:22;;;;;;;;;;;;;;;25.34;nan;100984.78;5053551;28;1066;-39
2022/09/20 04:09:59;;;;;;;;;;;;;;;25.33;nan;100988.41;5054646;28;1909;-41
2022/09/20 04:12:29;;;;;;;;;;;;;;;25.32;nan;100997.38;5054452;28;1105;-40
2022/09/20 04:15:03;;;;;;;;;;;;;;;25.32;nan;100992.03;5054549;28;1190;-37
2022/09/20 04:17:48;;;;;;;;;;;;;;;25.31;nan;100990.34;5054543;28;1106;-39
2022/09/20 04:20:22;;;;;;;;;;;;;;;25.30;nan;100988.66;5054520;28;1292;-42
2022/09/20 04:22:52;;;;;;;;;;;;;;;25.31;nan;100990.34;5054253;28;1586;-40
2022/09/20 04:25:26;;;;;;;;;;;;;;;25.30;nan;100991.31;5054238;28;1177;-36
2022/09/20 04:28:00;;;;;;;;;;;;;;;25.29;nan;100992.28;5054434;28;1049;-42
2022/09/20 04:30:29;;;;;;;;;;;;;;;25.29;nan;100992.28;5054210;28;1906;-39
2022/09/20 04:33:07;;;;;;;;;;;;;;;25.28;nan;100995.09;5053978;28;1010;-38
2022/09/20 04:36:28;;;;;;;;;;;;;;;25.27;nan;100996.91;5053986;28;1244;-40
2022/09/20 04:39:14;;;;;;;;;;;;;;;25.26;nan;100991.72;5051605;28;644;-41
2022/09/20 04:41:50;;;;;;;;;;;;;;;25.26;nan;100994.38;5051635;28;1308;-40
2022/09/20 04:44:26;;;;;;;;;;;;;;;25.25;nan;101003.31;5053333;28;1094;-37
2022/09/20 04:47:07;;;;;;;;;;;;;;;25.25;nan;101001.50;5053810;28;1324;-39
2022/09/20 04:49:52;;;;;;;;;;;;;;;25.24;nan;100999.81;5053303;28;1906;-40
2022/09/20 04:52:37;;;;;;;;;;;;;;;25.24;nan;100994.47;5054196;28;901;-39
2022/09/20 04:55:13;;;;;;;;;;;;;;;25.23;nan;100998.09;5053076;28;1238;-41
2022/09/20 04:57:40;;;;;;;;;;;;;;;25.22;nan;100996.44;5053587;28;995;-35
2022/09/20 05:00:18;;;;;;;;;;;;;;;25.20;nan;100998.34;5053053;28;1620;-40
2022/09/20 05:02:56;;;;;;;;;;;;;;;25.18;nan;101005.63;5045033;28;1022;-38
2022/09/20 05:05:29;;;;;;;;;;;;;;;25.18;nan;101000.31;5033819;28;1260;-43
2022/09/20 05:08:08;;;;;;;;;;;;;;;25.18;nan;101002.13;5033446;28;1010;-38
2022/09/20 05:10:51;;;;;;;;;;;;;;;25.18;nan;101004.78;5033593;28;1975;-37
2022/09/20 05:13:28;;;;;;;;;;;;;;;25.17;nan;101003.94;5034039;28;1036;-37
2022/09/20 05:15:59;;;;;;;;;;;;;;;25.17;nan;101005.78;5033408;28;1363;-37
2022/09/20 05:18:33;;;;;;;;;;;;;;;25.17;nan;101006.59;5033788;28;1259;-39
2022/09/20 05:21:12;;;;;;;;;;;;;;;25.17;nan;101000.44;5035903;28;1783;-42
2022/09/20 05:23:45;;;;;;;;;;;;;;;25.15;nan;101005.88;5043967;28;1653;-40
2022/09/20 05:26:26;;;;;;;;;;;;;;;25.14;nan;101004.16;5070327;28;1295;-37
2022/09/20 05:29:00;;;;;;;;;;;;;;;25.14;nan;100998.84;5042730;28;1971;-42
2022/09/20 05:31:36;;;;;;;;;;;;;;;25.15;nan;101002.34;5053445;28;1288;-37
2022/09/20 05:34:16;;;;;;;;;;;;;;;25.14;nan;101004.16;5052157;28;1071;-39
2022/09/20 05:37:00;;;;;;;;;;;;;;;25.15;nan;101015.69;5052726;28;1378;-42
2022/09/20 05:39:27;;;;;;;;;;;;;;;25.14;nan;101014.00;5052707;28;1035;-42
2022/09/20 05:42:01;;;;;;;;;;;;;;;25.13;nan;101009.63;5053018;28;1295;-41
2022/09/20 05:44:43;;;;;;;;;;;;;;;25.14;nan;101014.00;5052693;28;1145;-39
2022/09/20 05:47:29;;;;;;;;;;;;;;;25.13;nan;101013.16;5053154;28;1036;-42
2022/09/20 05:50:14;;;;;;;;;;;;;;;25.12;nan;101016.78;5052438;28;1981;-38
2022/09/20 05:52:53;;;;;;;;;;;;;;;25.13;nan;101022.97;5052824;28;1026;-37
2022/09/20 05:55:29;;;;;;;;;;;;;;;25.13;nan;101023.81;5052792;28;1264;-41
2022/09/20 05:58:07;;;;;;;;;;;;;;;25.13;nan;101023.81;5052820;28;922;-41
2022/09/20 06:00:41;;;;;;;;;;;;;;;25.15;nan;101021.03;5052493;28;1320;-35
2022/09/20 06:03:33;;;;;;;;;;;;;;;25.14;nan;101025.50;5069516;28;1113;-39
2022/09/20 06:06:08;;;;;;;;;;;;;;;25.15;nan;101027.19;5056285;28;1245;-42
2022/09/20 06:08:48;;;;;;;;;;;;;;;25.16;nan;101028.06;5045236;28;1370;-39
2022/09/20 06:11:32;;;;;;;;;;;;;;;25.15;nan;101015.69;5048993;28;1910;-32
2022/09/20 06:14:17;;;;;;;;;;;;;;;25.16;nan;101023.56;5047790;28;1632;-35
2022/09/20 06:16:46;;;;;;;;;;;;;;;25.17;nan;101030.59;5048462;28;1529;-35
2022/09/20 06:19:33;;;;;;;;;;;;;;;25.18;nan;101020.78;5031281;28;898;-38
2022/09/20 06:22:21;;;;;;;;;;;;;;;25.19;nan;101038.47;5064762;28;1499;-42
2022/09/20 06:24:54;;;;;;;;;;;;;;;25.17;nan;101030.59;5057988;28;1265;-39
2022/09/20 06:27:25;;;;;;;;;;;;;;;25.19;nan;101038.47;5031251;28;1078;-38
2022/09/20 06:29:54;;;;;;;;;;;;;;;25.19;nan;101034.00;5064167;28;1993;-38
2022/09/20 06:32:21;;;;;;;;;;;;;;;25.21;nan;101041.84;5049096;28;1232;-39
2022/09/20 06:34:48;;;;;;;;;;;;;;;25.21;nan;101036.53;5050725;28;1185;-35
2022/09/20 06:42:59;;;;;;;;;;;;;;;25.27;nan;101041.38;5049058;28;1168;-40
2022/09/20 06:45:26;;;;;;;;;;;;;;;25.25;nan;101038.84;5049497;28;1252;-41
2022/09/20 06:47:54;;;;;;;;;;;;;;;25.09;nan;101041.03;5061066;28;1303;-35
2022/09/20 06:50:27;;;;;;;;;;;;;;;24.93;nan;101045.84;5047704;28;1902;-41
2022/09/20 06:52:54;;;;;;;;;;;;;;;24.90;nan;101044.28;5050628;28;1334;-41
2022/09/20 06:55:25;;;;;;;;;;;;;;;24.90;nan;101048.75;5066164;28;1333;-37
2022/09/20 06:57:54;;;;;;;;;;;;;;;24.88;nan;101050.69;5052816;28;1086;-35
2022/09/20 07:00:21;;;;;;;;;;;;;;;24.85;nan;101046.47;5051777;28;1217;-36
2022/09/20 07:02:48;;;;;;;;;;;;;;;24.91;nan;101045.13;5052146;28;1049;-41
2022/09/20 07:05:16;;;;;;;;;;;;;;;24.86;nan;101049.97;5049745;28;1233;-33
2022/09/20 07:07:43;;;;;;;;;;;;;;;24.82;nan;101045.84;5040331;28;1644;-39
2022/09/20 07:10:11;;;;;;;;;;;;;;;24.79;nan;101044.25;5033506;28;1987;-36
2022/09/20 07:12:38;;;;;;;;;;;;;;;24.78;nan;101055.84;5054519;28;1086;-35
2022/09/20 07:15:05;;;;;;;;;;;;;;;24.69;nan;101045.06;5054843;28;1264;-37
2022/09/20 07:17:32;;;;;;;;;;;;;;;24.69;nan;101045.91;5054502;28;1174;-36
2022/09/20 07:19:59;;;;;;;;;;;;;;;24.89;nan;101052.41;5055148;28;1256;-34
2022/09/20 07:22:26;;;;;;;;;;;;;;;25.00;nan;101045.25;5055196;28;1121;-38
2022/09/20 07:24:54;;;;;;;;;;;;;;;25.08;nan;101044.63;5053700;28;1311;-37
2022/09/20 07:27:20;;;;;;;;;;;;;;;25.11;nan;101047.06;5053277;28;1131;-40
2022/09/20 07:29:47;;;;;;;;;;;;;;;25.15;nan;101053.84;5054183;28;1906;-39
2022/09/20 07:32:16;;;;;;;;;;;;;;;25.18;nan;101058.09;5054247;28;1037;-39
2022/09/20 07:34:42;;;;;;;;;;;;;;;25.20;nan;101061.50;5053884;28;1169;-36
2022/09/20 07:37:10;;;;;;;;;;;;;;;25.21;nan;101055.19;5053589;28;1093;-34
2022/09/20 07:39:37;;;;;;;;;;;;;;;25.22;nan;101057.75;5054664;28;1217;-39
2022/09/20 07:42:05;;;;;;;;;;;;;;;25.22;nan;101065.75;5054958;28;1099;-38
2022/09/20 07:44:32;;;;;;;;;;;;;;;25.24;nan;101061.13;5055206;28;1288;-37
2022/09/20 07:46:59;;;;;;;;;;;;;;;25.25;nan;101065.50;5055121;28;1100;-38
2022/09/20 07:49:28;;;;;;;;;;;;;;;25.26;nan;101064.50;5054423;28;1902;-40
2022/09/20 07:51:55;;;;;;;;;;;;;;;25.27;nan;101065.38;5054838;28;1030;-36
2022/09/20 07:54:22;;;;;;;;;;;;;;;25.26;nan;101063.69;5054468;28;701;-39
2022/09/20 07:56:49;;;;;;;;;;;;;;;25.26;nan;101061.84;5053807;28;1197;-39
2022/09/20 07:59:16;;;;;;;;;;;;;;;25.26;nan;101059.19;5054244;28;1625;-35
2022/09/20 08:01:43;;;;;;;;;;;;;;;25.26;nan;101061.84;5054596;28;1241;-39
2022/09/20 08:04:10;;;;;;;;;;;;;;;25.27;nan;101062.69;5054830;28;926;-37
2022/09/20 08:06:38;;;;;;;;;;;;;;;25.27;nan;101068.88;5054168;28;1221;-38
2022/09/20 08:09:05;;;;;;;;;;;;;;;25.26;nan;101069.84;5054372;28;910;-39
2022/09/20 08:11:38;;;;;;;;;;;;;;;25.27;nan;101079.53;5054127;28;1910;-39
2022/09/20 08:14:05;;;;;;;;;;;;;;;25.27;nan;101076.88;5053366;28;1534;-34
2022/09/20 08:16:44;;;;;;;;;;;;;;;25.29;nan;101082.94;5054623;28;1308;-38
2022/09/20 08:19:19;;;;;;;;;;;;;;;25.29;nan;101088.25;5054225;28;850;-40
2022/09/20 08:21:46;;;;;;;;;;;;;;;25.30;nan;101089.97;5053762;28;1331;-38
2022/09/20 08:24:15;;;;;;;;;;;;;;;25.30;nan;101084.63;5054473;28;702;-37
2022/09/20 08:26:42;;;;;;;;;;;;;;;25.32;nan;101090.69;5069389;28;1205;-35
2022/09/20 08:29:10;;;;;;;;;;;;;;;25.32;nan;101088.03;5053960;28;822;-41
2022/09/20 08:31:40;;;;;;;;;;;;;;;25.35;nan;101097.63;5053772;28;1906;-38
2022/09/20 08:34:09;;;;;;;;;;;;;;;25.34;nan;101102.09;5054224;28;696;-37
2022/09/20 08:36:39;;;;;;;;;;;;;;;25.34;nan;101099.44;5053888;28;1201;-38
2022/09/20 08:39:07;;;;;;;;;;;;;;;25.35;nan;101100.28;5054301;28;675;-39
2022/09/20 08:42:13;;;;;;;;;;;;;;;25.33;nan;101105.72;5054029;28;1740;-39
2022/09/20 08:44:40;;;;;;;;;;;;;;;25.33;nan;101111.06;5053890;28;1273;-38
2022/09/20 08:47:10;;;;;;;;;;;;;;;25.34;nan;101110.09;5053780;28;1450;-39
2022/09/20 08:49:37;;;;;;;;;;;;;;;25.33;nan;101105.72;5052231;28;1406;-38
2022/09/20 08:52:04;;;;;;;;;;;;;;;25.34;nan;101107.44;5053714;28;1918;-41
2022/09/20 08:54:35;;;;;;;;;;;;;;;25.33;nan;101111.06;5053769;28;1256;-39
2022/09/20 08:57:05;;;;;;;;;;;;;;;25.35;nan;101124.28;5053097;28;1021;-41
2022/09/20 08:59:33;;;;;;;;;;;;;;;25.35;nan;101118.97;5052706;28;1201;-35
2022/09/20 09:02:00;;;;;;;;;;;;;;;25.35;nan;101114.44;5053490;28;976;-41
2022/09/20 09:04:33;;;;;;;;;;;;;;;25.35;nan;101117.09;5052514;28;874;-42
2022/09/20 09:06:59;;;;;;;;;;;;;;;25.36;nan;101116.16;5053359;28;1023;-39
2022/09/20 09:09:27;;;;;;;;;;;;;;;25.36;nan;101123.28;5052858;28;1188;-38
2022/09/20 09:11:54;;;;;;;;;;;;;;;25.36;nan;101120.63;5052949;28;1931;-40
2022/09/20 09:17:12;;;;;;;;;;;;;;;25.39;nan;101126.56;5053080;28;1200;-35
2022/09/20 09:19:46;;;;;;;;;;;;;;;25.41;nan;101129.13;5052844;28;1292;-39
2022/09/20 09:22:21;;;;;;;;;;;;;;;25.41;nan;101132.63;5053154;28;1081;-40
2022/09/20 09:25:08;;;;;;;;;;;;;;;25.41;nan;101129.97;5052935;28;1355;-39
2022/09/20 09:27:48;;;;;;;;;;;;;;;25.41;nan;101134.47;5033447;28;1606;-39
2022/09/20 09:30:22;;;;;;;;;;;;;;;25.40;nan;101127.44;5035890;28;1977;-38
2022/09/20 09:32:49;;;;;;;;;;;;;;;25.41;nan;101123.81;5051378;28;1134;-35
2022/09/20 09:35:28;;;;;;;;;;;;;;;25.39;nan;101123.91;5052324;28;1279;-39
2022/09/20 09:37:57;;;;;;;;;;;;;;;25.40;nan;101130.09;5053351;28;1081;-39
2022/09/20 09:40:24;;;;;;;;;;;;;;;25.41;nan;101132.63;5052822;28;1239;-38
2022/09/20 09:42:53;;;;;;;;;;;;;;;25.41;nan;101132.63;5053003;28;1123;-40
2022/09/20 09:45:27;;;;;;;;;;;;;;;25.41;nan;101129.97;5052625;28;1229;-38
2022/09/20 09:47:55;;;;;;;;;;;;;;;25.44;nan;101128.91;5052858;28;1095;-38
2022/09/20 09:50:24;;;;;;;;;;;;;;;25.43;nan;101133.38;5052002;28;1906;-38
2022/09/20 09:52:58;;;;;;;;;;;;;;;25.44;nan;101134.22;5052619;28;1116;-36
2022/09/20 09:55:51;;;;;;;;;;;;;;;25.44;nan;101139.56;5052070;28;1209;-37
2022/09/20 09:58:43;;;;;;;;;;;;;;;25.43;nan;101138.72;5053028;28;1457;-37
2022/09/20 10:01:34;;;;;;;;;;;;;;;25.44;nan;101137.72;5051386;28;1272;-38
2022/09/20 10:04:13;;;;;;;;;;;;;;;25.45;nan;101135.91;5051955;28;735;-35
2022/09/20 10:06:48;;;;;;;;;;;;;;;25.46;nan;101135.81;5052176;28;1423;-37
2022/09/20 10:09:29;;;;;;;;;;;;;;;25.46;nan;101134.94;5052352;28;654;-39
2022/09/20 10:12:16;;;;;;;;;;;;;;;25.44;nan;101137.72;5051988;28;1918;-37
2022/09/20 10:14:43;;;;;;;;;;;;;;;25.43;nan;101128.03;5051105;28;1348;-38
2022/09/20 10:17:09;;;;;;;;;;;;;;;25.44;nan;101121.72;5052494;28;1108;-37
2022/09/20 10:19:39;;;;;;;;;;;;;;;25.47;nan;101121.47;5052438;28;1284;-40
2022/09/20 10:22:12;;;;;;;;;;;;;;;25.45;nan;101115.41;5051953;28;1088;-39
2022/09/20 10:24:45;;;;;;;;;;;;;;;25.44;nan;101129.72;5051814;28;1217;-41
2022/09/20 10:27:34;;;;;;;;;;;;;;;25.44;nan;101135.06;5052478;28;1003;-42
2022/09/20 10:30:13;;;;;;;;;;;;;;;25.44;nan;101129.72;5052024;28;1218;-39
2022/09/20 10:32:59;;;;;;;;;;;;;;;25.43;nan;101125.38;5052283;28;995;-37
2022/09/20 10:35:28;;;;;;;;;;;;;;;25.44;nan;101128.91;5052009;28;1320;-37
2022/09/20 10:38:12;;;;;;;;;;;;;;;25.44;nan;101129.72;5052497;28;1576;-34
2022/09/20 10:43:39;;;;;;;;;;;;;;;25.46;nan;101132.28;5052221;28;1181;-32
2022/09/20 10:46:06;;;;;;;;;;;;;;;25.45;nan;101133.22;5053143;28;1205;-40
2022/09/20 10:49:02;;;;;;;;;;;;;;;25.47;nan;101136.66;5055429;28;2145;-41
2022/09/20 10:51:43;;;;;;;;;;;;;;;25.45;nan;101139.44;5055396;28;2008;-36
2022/09/20 10:54:10;;;;;;;;;;;;;;;25.47;nan;101134.81;5055539;28;1175;-41
2022/09/20 10:56:38;;;;;;;;;;;;;;;25.47;nan;101140.13;5055569;28;1557;-38
2022/09/20 10:59:25;;;;;;;;;;;;;;;25.47;nan;101137.47;5055579;28;876;-39
2022/09/20 11:02:11;;;;;;;;;;;;;;;25.47;nan;101139.31;5055279;28;1256;-41
2022/09/20 11:04:57;;;;;;;;;;;;;;;25.46;nan;101138.47;5055490;28;1213;-36
2022/09/20 11:07:27;;;;;;;;;;;;;;;25.48;nan;101141.00;5035864;28;1127;-41
2022/09/20 11:10:00;;;;;;;;;;;;;;;25.47;nan;101121.47;5036007;28;1610;-37
2022/09/20 11:12:31;;;;;;;;;;;;;;;25.48;nan;101135.66;5054881;28;1906;-39
2022/09/20 11:15:11;;;;;;;;;;;;;;;25.48;nan;101123.22;5054534;28;1225;-35
2022/09/20 11:17:40;;;;;;;;;;;;;;;25.46;nan;101127.78;5051658;28;1109;-42
2022/09/20 11:20:06;;;;;;;;;;;;;;;25.45;nan;101120.75;5075996;28;1418;-40
2022/09/20 11:22:39;;;;;;;;;;;;;;;25.47;nan;101117.97;5044641;28;1566;-43
2022/09/20 11:25:23;;;;;;;;;;;;;;;25.48;nan;101125.00;5045340;28;1320;-38
2022/09/20 11:28:18;;;;;;;;;;;;;;;25.49;nan;101116.06;5042702;28;1641;-38
2022/09/20 11:31:05;;;;;;;;;;;;;;;25.51;nan;101125.63;5044914;28;1914;-39
2022/09/20 11:33:36;;;;;;;;;;;;;;;25.51;nan;101122.13;5042807;28;1233;-36
2022/09/20 11:36:09;;;;;;;;;;;;;;;25.52;nan;101121.16;5048671;28;1300;-35
2022/09/20 11:38:39;;;;;;;;;;;;;;;25.53;nan;101126.34;5053808;28;1129;-39
2022/09/20 11:41:18;;;;;;;;;;;;;;;25.54;nan;101114.72;5044854;28;1288;-35
2022/09/20 11:43:46;;;;;;;;;;;;;;;25.54;nan;101114.72;5036653;28;1152;-38
2022/09/20 11:46:33;;;;;;;;;;;;;;;25.56;nan;101108.44;5054135;28;1390;-40
2022/09/20 11:49:10;;;;;;;;;;;;;;;25.56;nan;101103.09;5050442;28;1365;-36
2022/09/20 11:51:52;;;;;;;;;;;;;;;25.57;nan;101102.09;5052254;28;1983;-39
2022/09/20 11:54:35;;;;;;;;;;;;;;;25.58;nan;101103.81;5075245;28;1197;-38
2022/09/20 11:57:04;;;;;;;;;;;;;;;25.58;nan;101095.81;5054097;28;947;-40
2022/09/20 11:59:36;;;;;;;;;;;;;;;25.59;nan;101097.50;5059107;28;1363;-36
2022/09/20 12:02:11;;;;;;;;;;;;;;;25.59;nan;101101.03;5073422;28;1281;-40
2022/09/20 12:04:43;;;;;;;;;;;;;;;25.59;nan;101095.69;5037081;28;1328;-38
2022/09/20 12:07:22;;;;;;;;;;;;;;;25.60;nan;101089.38;5047879;28;1205;-29
2022/09/20 12:09:56;;;;;;;;;;;;;;;25.61;nan;101090.22;5041300;28;1257;-33
2022/09/20 12:12:23;;;;;;;;;;;;;;;25.62;nan;101087.44;5035228;28;1902;-32
2022/09/20 12:14:55;;;;;;;;;;;;;;;25.61;nan;101088.41;5066116;28;1367;-42
2022/09/20 12:17:40;;;;;;;;;;;;;;;25.61;nan;101085.75;5046726;28;1216;-36
2022/09/20 12:20:26;;;;;;;;;;;;;;;25.62;nan;101081.25;5065171;28;1284;-35
2022/09/20 12:23:13;;;;;;;;;;;;;;;25.62;nan;101078.59;5036387;28;1021;-35
2022/09/20 12:25:59;;;;;;;;;;;;;;;25.62;nan;101073.25;5044130;28;1332;-37
2022/09/20 12:28:36;;;;;;;;;;;;;;;25.64;nan;101081.97;5079237;28;1266;-32
2022/09/20 12:31:33;;;;;;;;;;;;;;;25.67;nan;101077.25;5047528;28;1914;-38
2022/09/20 12:34:01;;;;;;;;;;;;;;;25.70;nan;101069.00;5049286;28;1029;-36
2022/09/20 12:36:29;;;;;;;;;;;;;;;25.71;nan;101065.34;5045711;28;1393;-40
2022/09/20 12:39:05;;;;;;;;;;;;;;;25.71;nan;101057.34;5043865;28;864;-35
2022/09/20 12:41:46;;;;;;;;;;;;;;;25.71;nan;101053.84;5072931;28;1648;-33
2022/09/20 12:44:22;;;;;;;;;;;;;;;25.71;nan;101060.03;5032601;28;1343;-35
2022/09/20 12:46:55;;;;;;;;;;;;;;;25.71;nan;101056.50;5046138;28;1261;-38
2022/09/20 12:55:11;;;;;;;;;;;;;;;25.72;nan;101036.84;5046919;28;1355;-34
2022/09/20 12:57:39;;;;;;;;;;;;;;;25.73;nan;101035.88;5050970;28;969;-36
2022/09/20 13:00:07;;;;;;;;;;;;;;;25.71;nan;101033.34;5046245;28;1273;-33
2022/09/20 13:02:52;;;;;;;;;;;;;;;25.72;nan;101034.16;5032234;28;1103;-39
2022/09/20 13:05:36;;;;;;;;;;;;;;;25.74;nan;101041.09;5038788;28;1365;-37
2022/09/20 13:08:12;;;;;;;;;;;;;;;25.78;nan;101039.00;5036609;28;1482;-37
2022/09/20 13:11:05;;;;;;;;;;;;;;;25.79;nan;101032.69;5048063;28;1370;-39
2022/09/20 13:13:50;;;;;;;;;;;;;;;25.79;nan;101032.69;5056954;28;1335;-39
2022/09/20 13:16:21;;;;;;;;;;;;;;;25.79;nan;101032.69;5040635;28;1326;-40
2022/09/20 13:18:58;;;;;;;;;;;;;;;25.81;nan;101031.59;5032510;28;937;-39
2022/09/20 13:21:26;;;;;;;;;;;;;;;25.82;nan;101027.09;5043349;28;1403;-39
2022/09/20 13:23:54;;;;;;;;;;;;;;;25.81;nan;101025.41;5035333;28;766;-39
2022/09/20 13:26:24;;;;;;;;;;;;;;;25.84;nan;101023.34;5041849;28;1287;-38
2022/09/20 13:28:53;;;;;;;;;;;;;;;25.84;nan;101011.84;5037763;28;810;-39
2022/09/20 13:31:22;;;;;;;;;;;;;;;25.85;nan;101010.84;5037414;28;1986;-39
2022/09/20 13:33:49;;;;;;;;;;;;;;;25.85;nan;101016.19;5032267;28;718;-35
2022/09/20 13:36:23;;;;;;;;;;;;;;;25.84;nan;101020.66;5047900;28;1256;-42
2022/09/20 13:38:50;;;;;;;;;;;;;;;25.87;nan;101016.94;5039265;28;972;-34
2022/09/20 13:41:16;;;;;;;;;;;;;;;25.88;nan;101018.59;5035388;28;1358;-38
2022/09/20 13:43:45;;;;;;;;;;;;;;;25.87;nan;101011.59;5051144;28;1126;-35
2022/09/20 13:46:20;;;;;;;;;;;;;;;25.87;nan;101007.06;5038925;28;1232;-40
2022/09/20 13:48:51;;;;;;;;;;;;;;;25.89;nan;101006.97;5045926;28;1510;-38
2022/09/20 13:51:19;;;;;;;;;;;;;;;25.88;nan;101010.59;5038002;28;1987;-38
2022/09/20 13:53:46;;;;;;;;;;;;;;;25.88;nan;101005.25;5032554;28;890;-42
2022/09/20 13:56:16;;;;;;;;;;;;;;;25.88;nan;100995.44;5034506;28;1273;-38
2022/09/20 13:58:43;;;;;;;;;;;;;;;25.88;nan;100994.56;5033477;28;1514;-41
2022/09/20 14:01:28;;;;;;;;;;;;;;;25.89;nan;101006.97;5036079;28;1331;-38
2022/09/20 14:03:59;;;;;;;;;;;;;;;25.88;nan;100994.56;5031784;28;712;-34